sensor_id;sensor_type;location;lat;lon;timestamp;temperature;humidity
24326;DHT22;12448;45.532;5.290;2022-11-20T00:01:23;7.50;94.10
24326;DHT22;12448;45.532;5.290;2022-11-20T00:03:52;7.30;94.10
24326;DHT22;12448;45.532;5.290;2022-11-20T00:06:22;7.30;94.10
24326;DHT22;12448;45.532;5.290;2022-11-20T00:08:48;7.40;94.20
24326;DHT22;12448;45.532;5.290;2022-11-20T00:11:22;7.40;94.10
24326;DHT22;12448;45.532;5.290;2022-11-20T00:13:51;7.40;94.20
24326;DHT22;12448;45.532;5.290;2022-11-20T00:16:22;7.70;94.30
24326;DHT22;12448;45.532;5.290;2022-11-20T00:18:48;7.50;94.30
24326;DHT22;12448;45.532;5.290;2022-11-20T00:21:16;7.20;94.30
24326;DHT22;12448;45.532;5.290;2022-11-20T00:23:43;7.50;94.60
24326;DHT22;12448;45.532;5.290;2022-11-20T00:26:11;7.20;94.50
24326;DHT22;12448;45.532;5.290;2022-11-20T00:28:37;7.20;94.50
24326;DHT22;12448;45.532;5.290;2022-11-20T00:31:05;7.20;94.50
24326;DHT22;12448;45.532;5.290;2022-11-20T00:33:32;7.30;94.60
24326;DHT22;12448;45.532;5.290;2022-11-20T00:36:05;7.10;94.50
24326;DHT22;12448;45.532;5.290;2022-11-20T00:38:38;7.20;94.50
24326;DHT22;12448;45.532;5.290;2022-11-20T00:41:07;7.30;94.50
24326;DHT22;12448;45.532;5.290;2022-11-20T00:43:33;7.40;94.50
24326;DHT22;12448;45.532;5.290;2022-11-20T00:46:20;7.30;94.30
24326;DHT22;12448;45.532;5.290;2022-11-20T00:48:52;7.30;94.30
24326;DHT22;12448;45.532;5.290;2022-11-20T00:51:20;7.30;94.40
24326;DHT22;12448;45.532;5.290;2022-11-20T00:53:46;7.30;94.40
24326;DHT22;12448;45.532;5.290;2022-11-20T00:56:15;7.20;94.40
24326;DHT22;12448;45.532;5.290;2022-11-20T00:58:45;7.90;94.60
24326;DHT22;12448;45.532;5.290;2022-11-20T01:01:17;7.40;94.50
24326;DHT22;12448;45.532;5.290;2022-11-20T01:03:45;7.60;94.60
24326;DHT22;12448;45.532;5.290;2022-11-20T01:06:16;7.20;94.80
24326;DHT22;12448;45.532;5.290;2022-11-20T01:08:43;7.20;94.60
24326;DHT22;12448;45.532;5.290;2022-11-20T01:11:17;7.20;94.40
24326;DHT22;12448;45.532;5.290;2022-11-20T01:13:46;7.20;94.40
24326;DHT22;12448;45.532;5.290;2022-11-20T01:16:21;7.50;94.40
24326;DHT22;12448;45.532;5.290;2022-11-20T01:18:49;7.20;94.20
24326;DHT22;12448;45.532;5.290;2022-11-20T01:21:23;7.20;94.20
24326;DHT22;12448;45.532;5.290;2022-11-20T01:23:52;7.20;94.20
24326;DHT22;12448;45.532;5.290;2022-11-20T01:26:24;7.20;94.20
24326;DHT22;12448;45.532;5.290;2022-11-20T01:28:50;7.80;94.30
24326;DHT22;12448;45.532;5.290;2022-11-20T01:33:47;7.40;94.20
24326;DHT22;12448;45.532;5.290;2022-11-20T01:36:24;7.60;94.30
24326;DHT22;12448;45.532;5.290;2022-11-20T01:38:58;7.30;94.10
24326;DHT22;12448;45.532;5.290;2022-11-20T01:41:26;7.50;94.00
24326;DHT22;12448;45.532;5.290;2022-11-20T01:44:13;7.40;93.90
24326;DHT22;12448;45.532;5.290;2022-11-20T01:46:49;7.40;93.70
24326;DHT22;12448;45.532;5.290;2022-11-20T01:49:21;7.40;93.70
24326;DHT22;12448;45.532;5.290;2022-11-20T01:51:59;7.70;93.90
24326;DHT22;12448;45.532;5.290;2022-11-20T01:54:34;7.40;93.80
24326;DHT22;12448;45.532;5.290;2022-11-20T01:57:03;7.90;94.10
24326;DHT22;12448;45.532;5.290;2022-11-20T01:59:30;7.60;94.00
24326;DHT22;12448;45.532;5.290;2022-11-20T02:01:57;7.20;94.10
24326;DHT22;12448;45.532;5.290;2022-11-20T02:04:23;7.20;94.10
24326;DHT22;12448;45.532;5.290;2022-11-20T02:07:00;7.20;94.20
24326;DHT22;12448;45.532;5.290;2022-11-20T02:09:32;7.30;94.30
24326;DHT22;12448;45.532;5.290;2022-11-20T02:12:04;7.40;94.30
24326;DHT22;12448;45.532;5.290;2022-11-20T02:14:30;7.30;94.40
24326;DHT22;12448;45.532;5.290;2022-11-20T02:16:55;7.90;94.50
24326;DHT22;12448;45.532;5.290;2022-11-20T02:19:32;7.40;94.40
24326;DHT22;12448;45.532;5.290;2022-11-20T02:22:04;7.90;94.40
24326;DHT22;12448;45.532;5.290;2022-11-20T02:24:31;7.30;94.30
24326;DHT22;12448;45.532;5.290;2022-11-20T02:27:03;7.30;94.30
24326;DHT22;12448;45.532;5.290;2022-11-20T02:32:02;7.50;94.40
24326;DHT22;12448;45.532;5.290;2022-11-20T02:34:28;7.40;94.30
24326;DHT22;12448;45.532;5.290;2022-11-20T02:36:54;7.30;94.20
24326;DHT22;12448;45.532;5.290;2022-11-20T02:39:24;7.70;94.40
24326;DHT22;12448;45.532;5.290;2022-11-20T02:41:55;7.60;94.40
24326;DHT22;12448;45.532;5.290;2022-11-20T02:44:27;7.30;94.40
24326;DHT22;12448;45.532;5.290;2022-11-20T02:46:53;7.30;94.40
24326;DHT22;12448;45.532;5.290;2022-11-20T02:49:18;7.90;94.70
24326;DHT22;12448;45.532;5.290;2022-11-20T02:51:44;7.30;94.50
24326;DHT22;12448;45.532;5.290;2022-11-20T02:54:10;7.40;94.50
24326;DHT22;12448;45.532;5.290;2022-11-20T02:56:39;7.20;94.60
24326;DHT22;12448;45.532;5.290;2022-11-20T02:59:05;7.00;94.60
24326;DHT22;12448;45.532;5.290;2022-11-20T03:01:30;7.10;94.80
24326;DHT22;12448;45.532;5.290;2022-11-20T03:03:56;7.00;94.90
24326;DHT22;12448;45.532;5.290;2022-11-20T03:06:22;7.00;95.00
24326;DHT22;12448;45.532;5.290;2022-11-20T03:08:47;7.00;95.00
24326;DHT22;12448;45.532;5.290;2022-11-20T03:11:13;7.00;95.00
24326;DHT22;12448;45.532;5.290;2022-11-20T03:13:39;7.10;94.90
24326;DHT22;12448;45.532;5.290;2022-11-20T03:16:13;7.10;94.90
24326;DHT22;12448;45.532;5.290;2022-11-20T03:18:40;7.00;95.00
24326;DHT22;12448;45.532;5.290;2022-11-20T03:21:07;6.90;95.00
24326;DHT22;12448;45.532;5.290;2022-11-20T03:23:33;7.30;95.20
24326;DHT22;12448;45.532;5.290;2022-11-20T03:26:19;6.90;95.10
24326;DHT22;12448;45.532;5.290;2022-11-20T03:28:50;7.00;95.20
24326;DHT22;12448;45.532;5.290;2022-11-20T03:31:18;7.10;95.30
24326;DHT22;12448;45.532;5.290;2022-11-20T03:33:44;6.90;95.20
24326;DHT22;12448;45.532;5.290;2022-11-20T03:36:14;6.90;95.20
24326;DHT22;12448;45.532;5.290;2022-11-20T03:38:44;6.90;95.30
24326;DHT22;12448;45.532;5.290;2022-11-20T03:41:17;6.80;95.40
24326;DHT22;12448;45.532;5.290;2022-11-20T03:43:46;6.80;95.50
24326;DHT22;12448;45.532;5.290;2022-11-20T03:46:12;6.80;95.50
24326;DHT22;12448;45.532;5.290;2022-11-20T03:48:38;6.30;95.30
24326;DHT22;12448;45.532;5.290;2022-11-20T03:51:16;6.80;95.40
24326;DHT22;12448;45.532;5.290;2022-11-20T03:53:47;6.90;95.40
24326;DHT22;12448;45.532;5.290;2022-11-20T03:56:14;7.00;95.40
24326;DHT22;12448;45.532;5.290;2022-11-20T03:58:42;6.90;95.30
24326;DHT22;12448;45.532;5.290;2022-11-20T04:01:18;6.90;95.40
24326;DHT22;12448;45.532;5.290;2022-11-20T04:03:45;7.00;95.30
24326;DHT22;12448;45.532;5.290;2022-11-20T04:06:12;7.00;95.20
24326;DHT22;12448;45.532;5.290;2022-11-20T04:08:38;7.20;95.20
24326;DHT22;12448;45.532;5.290;2022-11-20T04:11:24;7.10;95.20
24326;DHT22;12448;45.532;5.290;2022-11-20T04:13:53;7.00;95.10
24326;DHT22;12448;45.532;5.290;2022-11-20T04:16:20;7.00;95.00
24326;DHT22;12448;45.532;5.290;2022-11-20T04:18:46;7.00;95.10
24326;DHT22;12448;45.532;5.290;2022-11-20T04:21:17;7.40;95.20
24326;DHT22;12448;45.532;5.290;2022-11-20T04:23:43;7.00;95.10
24326;DHT22;12448;45.532;5.290;2022-11-20T04:26:11;6.90;95.00
24326;DHT22;12448;45.532;5.290;2022-11-20T04:28:38;7.00;94.90
24326;DHT22;12448;45.532;5.290;2022-11-20T04:33:29;7.00;95.00
24326;DHT22;12448;45.532;5.290;2022-11-20T04:35:55;7.40;95.00
24326;DHT22;12448;45.532;5.290;2022-11-20T04:38:24;7.00;94.90
24326;DHT22;12448;45.532;5.290;2022-11-20T04:40:53;7.50;95.00
24326;DHT22;12448;45.532;5.290;2022-11-20T04:43:20;7.70;94.90
24326;DHT22;12448;45.532;5.290;2022-11-20T04:45:53;7.10;95.10
24326;DHT22;12448;45.532;5.290;2022-11-20T04:48:20;7.10;94.80
24326;DHT22;12448;45.532;5.290;2022-11-20T04:50:46;7.60;94.90
24326;DHT22;12448;45.532;5.290;2022-11-20T04:53:11;7.10;94.70
24326;DHT22;12448;45.532;5.290;2022-11-20T04:55:40;7.20;94.70
24326;DHT22;12448;45.532;5.290;2022-11-20T04:58:06;7.20;94.60
24326;DHT22;12448;45.532;5.290;2022-11-20T05:00:31;7.80;94.70
24326;DHT22;12448;45.532;5.290;2022-11-20T05:02:57;7.40;94.60
24326;DHT22;12448;45.532;5.290;2022-11-20T05:05:23;7.20;94.40
24326;DHT22;12448;45.532;5.290;2022-11-20T05:07:49;7.20;94.40
24326;DHT22;12448;45.532;5.290;2022-11-20T05:10:15;7.20;94.40
24326;DHT22;12448;45.532;5.290;2022-11-20T05:12:41;7.30;94.30
24326;DHT22;12448;45.532;5.290;2022-11-20T05:15:07;7.30;94.30
24326;DHT22;12448;45.532;5.290;2022-11-20T05:17:33;7.20;94.10
24326;DHT22;12448;45.532;5.290;2022-11-20T05:19:58;7.30;94.10
24326;DHT22;12448;45.532;5.290;2022-11-20T05:22:24;7.30;94.10
24326;DHT22;12448;45.532;5.290;2022-11-20T05:24:59;7.70;94.20
24326;DHT22;12448;45.532;5.290;2022-11-20T05:27:24;7.80;94.30
24326;DHT22;12448;45.532;5.290;2022-11-20T05:29:50;7.50;94.10
24326;DHT22;12448;45.532;5.290;2022-11-20T05:32:17;7.40;93.90
24326;DHT22;12448;45.532;5.290;2022-11-20T05:34:42;7.40;93.80
24326;DHT22;12448;45.532;5.290;2022-11-20T05:37:08;7.40;93.80
24326;DHT22;12448;45.532;5.290;2022-11-20T05:39:34;7.40;94.20
24326;DHT22;12448;45.532;5.290;2022-11-20T05:41:59;7.80;94.00
24326;DHT22;12448;45.532;5.290;2022-11-20T05:44:44;7.50;93.90
24326;DHT22;12448;45.532;5.290;2022-11-20T05:47:09;7.50;93.80
24326;DHT22;12448;45.532;5.290;2022-11-20T05:49:38;7.50;93.70
24326;DHT22;12448;45.532;5.290;2022-11-20T05:52:03;7.90;93.80
24326;DHT22;12448;45.532;5.290;2022-11-20T05:54:29;7.80;93.70
24326;DHT22;12448;45.532;5.290;2022-11-20T05:56:55;7.90;93.70
24326;DHT22;12448;45.532;5.290;2022-11-20T05:59:21;7.60;93.60
24326;DHT22;12448;45.532;5.290;2022-11-20T06:02:06;7.60;93.50
24326;DHT22;12448;45.532;5.290;2022-11-20T06:04:32;8.10;93.60
24326;DHT22;12448;45.532;5.290;2022-11-20T06:06:58;7.50;93.40
24326;DHT22;12448;45.532;5.290;2022-11-20T06:09:23;7.50;93.40
24326;DHT22;12448;45.532;5.290;2022-11-20T06:12:07;7.50;93.40
24326;DHT22;12448;45.532;5.290;2022-11-20T06:14:33;7.60;93.40
24326;DHT22;12448;45.532;5.290;2022-11-20T06:16:59;7.60;93.50
24326;DHT22;12448;45.532;5.290;2022-11-20T06:19:25;7.60;93.50
24326;DHT22;12448;45.532;5.290;2022-11-20T06:21:57;7.60;93.40
24326;DHT22;12448;45.532;5.290;2022-11-20T06:24:38;7.70;93.40
24326;DHT22;12448;45.532;5.290;2022-11-20T06:27:06;7.60;93.40
24326;DHT22;12448;45.532;5.290;2022-11-20T06:29:35;7.70;93.50
24326;DHT22;12448;45.532;5.290;2022-11-20T06:32:01;7.60;93.40
24326;DHT22;12448;45.532;5.290;2022-11-20T06:34:27;7.70;93.50
24326;DHT22;12448;45.532;5.290;2022-11-20T06:36:56;7.70;93.40
24326;DHT22;12448;45.532;5.290;2022-11-20T06:39:21;7.90;93.50
24326;DHT22;12448;45.532;5.290;2022-11-20T06:41:47;7.80;93.40
24326;DHT22;12448;45.532;5.290;2022-11-20T06:44:13;7.80;93.30
24326;DHT22;12448;45.532;5.290;2022-11-20T06:46:38;7.90;93.30
24326;DHT22;12448;45.532;5.290;2022-11-20T06:49:07;7.60;93.20
24326;DHT22;12448;45.532;5.290;2022-11-20T06:51:33;7.50;93.30
24326;DHT22;12448;45.532;5.290;2022-11-20T06:54:04;7.60;93.40
24326;DHT22;12448;45.532;5.290;2022-11-20T06:56:36;7.60;93.50
24326;DHT22;12448;45.532;5.290;2022-11-20T06:59:06;7.60;93.50
24326;DHT22;12448;45.532;5.290;2022-11-20T07:01:32;7.70;93.40
24326;DHT22;12448;45.532;5.290;2022-11-20T07:04:01;7.70;93.40
24326;DHT22;12448;45.532;5.290;2022-11-20T07:06:38;7.70;93.40
24326;DHT22;12448;45.532;5.290;2022-11-20T07:09:04;7.60;93.40
24326;DHT22;12448;45.532;5.290;2022-11-20T07:11:46;7.90;93.50
24326;DHT22;12448;45.532;5.290;2022-11-20T07:14:29;7.70;93.40
24326;DHT22;12448;45.532;5.290;2022-11-20T07:17:04;7.80;93.50
24326;DHT22;12448;45.532;5.290;2022-11-20T07:19:29;8.10;93.50
24326;DHT22;12448;45.532;5.290;2022-11-20T07:21:55;7.80;93.40
24326;DHT22;12448;45.532;5.290;2022-11-20T07:24:31;7.80;93.30
24326;DHT22;12448;45.532;5.290;2022-11-20T07:26:57;7.90;93.30
24326;DHT22;12448;45.532;5.290;2022-11-20T07:29:29;7.90;93.30
24326;DHT22;12448;45.532;5.290;2022-11-20T07:32:05;7.90;93.20
24326;DHT22;12448;45.532;5.290;2022-11-20T07:34:34;7.90;93.20
24326;DHT22;12448;45.532;5.290;2022-11-20T07:36:59;8.50;93.40
24326;DHT22;12448;45.532;5.290;2022-11-20T07:39:36;7.90;93.20
24326;DHT22;12448;45.532;5.290;2022-11-20T07:42:02;8.00;93.10
24326;DHT22;12448;45.532;5.290;2022-11-20T07:44:41;8.00;93.10
24326;DHT22;12448;45.532;5.290;2022-11-20T07:47:16;8.00;93.10
24326;DHT22;12448;45.532;5.290;2022-11-20T07:49:44;7.90;93.10
24326;DHT22;12448;45.532;5.290;2022-11-20T07:52:16;7.90;93.10
24326;DHT22;12448;45.532;5.290;2022-11-20T07:54:48;8.00;93.10
24326;DHT22;12448;45.532;5.290;2022-11-20T07:57:19;8.00;93.10
24326;DHT22;12448;45.532;5.290;2022-11-20T07:59:45;8.10;93.00
24326;DHT22;12448;45.532;5.290;2022-11-20T08:02:11;8.00;92.90
24326;DHT22;12448;45.532;5.290;2022-11-20T08:04:40;8.00;92.90
24326;DHT22;12448;45.532;5.290;2022-11-20T08:07:11;7.90;92.80
24326;DHT22;12448;45.532;5.290;2022-11-20T08:09:37;8.30;92.90
24326;DHT22;12448;45.532;5.290;2022-11-20T08:12:03;7.90;92.90
24326;DHT22;12448;45.532;5.290;2022-11-20T08:14:47;7.90;92.90
24326;DHT22;12448;45.532;5.290;2022-11-20T08:17:12;8.00;92.90
24326;DHT22;12448;45.532;5.290;2022-11-20T08:19:41;7.90;92.90
24326;DHT22;12448;45.532;5.290;2022-11-20T08:22:07;8.60;93.10
24326;DHT22;12448;45.532;5.290;2022-11-20T08:24:49;8.00;92.90
24326;DHT22;12448;45.532;5.290;2022-11-20T08:27:18;8.00;92.80
24326;DHT22;12448;45.532;5.290;2022-11-20T08:30:02;8.40;92.80
24326;DHT22;12448;45.532;5.290;2022-11-20T08:32:33;7.90;92.70
24326;DHT22;12448;45.532;5.290;2022-11-20T08:35:03;7.80;92.80
24326;DHT22;12448;45.532;5.290;2022-11-20T08:37:35;7.70;92.80
24326;DHT22;12448;45.532;5.290;2022-11-20T08:40:03;7.70;93.10
24326;DHT22;12448;45.532;5.290;2022-11-20T08:43:09;7.70;93.20
24326;DHT22;12448;45.532;5.290;2022-11-20T08:45:47;7.80;93.30
24326;DHT22;12448;45.532;5.290;2022-11-20T08:48:16;7.80;93.20
24326;DHT22;12448;45.532;5.290;2022-11-20T08:50:50;8.20;93.30
24326;DHT22;12448;45.532;5.290;2022-11-20T08:56:15;7.80;92.90
24326;DHT22;12448;45.532;5.290;2022-11-20T08:58:56;7.30;92.90
24326;DHT22;12448;45.532;5.290;2022-11-20T09:02:05;7.90;93.10
24326;DHT22;12448;45.532;5.290;2022-11-20T09:04:37;7.90;93.10
24326;DHT22;12448;45.532;5.290;2022-11-20T09:07:06;7.90;93.00
24326;DHT22;12448;45.532;5.290;2022-11-20T09:09:40;7.90;93.00
24326;DHT22;12448;45.532;5.290;2022-11-20T09:12:29;7.90;92.90
24326;DHT22;12448;45.532;5.290;2022-11-20T09:14:57;7.80;93.00
24326;DHT22;12448;45.532;5.290;2022-11-20T09:17:26;7.90;93.10
24326;DHT22;12448;45.532;5.290;2022-11-20T09:19:51;7.90;93.20
24326;DHT22;12448;45.532;5.290;2022-11-20T09:22:17;7.90;93.10
24326;DHT22;12448;45.532;5.290;2022-11-20T09:24:46;8.10;93.40
24326;DHT22;12448;45.532;5.290;2022-11-20T09:27:11;7.80;93.40
24326;DHT22;12448;45.532;5.290;2022-11-20T09:29:37;7.80;93.50
24326;DHT22;12448;45.532;5.290;2022-11-20T09:32:03;7.80;93.40
24326;DHT22;12448;45.532;5.290;2022-11-20T09:34:32;7.80;93.40
24326;DHT22;12448;45.532;5.290;2022-11-20T09:36:57;7.90;93.40
24326;DHT22;12448;45.532;5.290;2022-11-20T09:39:23;7.90;93.30
24326;DHT22;12448;45.532;5.290;2022-11-20T09:47:11;7.90;93.20
24326;DHT22;12448;45.532;5.290;2022-11-20T09:52:42;7.80;93.00
24326;DHT22;12448;45.532;5.290;2022-11-20T09:55:12;7.80;93.00
24326;DHT22;12448;45.532;5.290;2022-11-20T09:57:42;7.80;93.20
24326;DHT22;12448;45.532;5.290;2022-11-20T10:00:11;7.80;93.40
24326;DHT22;12448;45.532;5.290;2022-11-20T10:03:11;7.90;93.40
24326;DHT22;12448;45.532;5.290;2022-11-20T10:05:44;7.90;93.20
24326;DHT22;12448;45.532;5.290;2022-11-20T10:08:18;7.80;92.90
24326;DHT22;12448;45.532;5.290;2022-11-20T10:10:49;8.20;93.10
24326;DHT22;12448;45.532;5.290;2022-11-20T10:22:30;7.80;92.90
24326;DHT22;12448;45.532;5.290;2022-11-20T10:31:03;7.80;92.70
24326;DHT22;12448;45.532;5.290;2022-11-20T10:33:39;7.90;92.70
24326;DHT22;12448;45.532;5.290;2022-11-20T10:36:16;8.00;92.60
24326;DHT22;12448;45.532;5.290;2022-11-20T10:38:56;8.10;92.10
24326;DHT22;12448;45.532;5.290;2022-11-20T10:41:40;8.20;91.80
24326;DHT22;12448;45.532;5.290;2022-11-20T10:44:19;8.10;91.60
24326;DHT22;12448;45.532;5.290;2022-11-20T10:47:05;8.50;91.60
24326;DHT22;12448;45.532;5.290;2022-11-20T10:49:34;8.30;91.50
24326;DHT22;12448;45.532;5.290;2022-11-20T10:54:47;8.60;91.40
24326;DHT22;12448;45.532;5.290;2022-11-20T11:00:36;8.50;90.60
24326;DHT22;12448;45.532;5.290;2022-11-20T11:03:01;8.80;90.70
24326;DHT22;12448;45.532;5.290;2022-11-20T11:05:51;8.30;90.50
24326;DHT22;12448;45.532;5.290;2022-11-20T11:08:19;8.30;90.60
24326;DHT22;12448;45.532;5.290;2022-11-20T11:11:34;8.30;90.80
24326;DHT22;12448;45.532;5.290;2022-11-20T11:13:41;8.40;91.00
24326;DHT22;12448;45.532;5.290;2022-11-20T11:16:23;8.80;91.00
24326;DHT22;12448;45.532;5.290;2022-11-20T11:18:49;8.50;90.80
24326;DHT22;12448;45.532;5.290;2022-11-20T11:21:25;8.60;90.50
24326;DHT22;12448;45.532;5.290;2022-11-20T11:24:03;8.40;90.70
24326;DHT22;12448;45.532;5.290;2022-11-20T11:26:50;8.60;90.70
24326;DHT22;12448;45.532;5.290;2022-11-20T11:29:18;8.70;90.60
24326;DHT22;12448;45.532;5.290;2022-11-20T11:31:47;9.30;90.50
24326;DHT22;12448;45.532;5.290;2022-11-20T11:34:15;9.50;90.60
24326;DHT22;12448;45.532;5.290;2022-11-20T11:37:00;9.10;90.30
24326;DHT22;12448;45.532;5.290;2022-11-20T11:39:29;9.20;90.00
24326;DHT22;12448;45.532;5.290;2022-11-20T11:41:56;9.30;90.00
24326;DHT22;12448;45.532;5.290;2022-11-20T11:44:33;9.40;89.20
24326;DHT22;12448;45.532;5.290;2022-11-20T11:47:51;9.30;89.10
24326;DHT22;12448;45.532;5.290;2022-11-20T11:50:28;9.40;89.60
24326;DHT22;12448;45.532;5.290;2022-11-20T11:53:08;9.50;89.70
24326;DHT22;12448;45.532;5.290;2022-11-20T11:58:47;9.70;89.40
24326;DHT22;12448;45.532;5.290;2022-11-20T12:06:43;9.80;88.50
24326;DHT22;12448;45.532;5.290;2022-11-20T12:09:10;9.90;88.20
24326;DHT22;12448;45.532;5.290;2022-11-20T12:12:04;10.00;87.80
24326;DHT22;12448;45.532;5.290;2022-11-20T12:14:40;9.80;87.50
24326;DHT22;12448;45.532;5.290;2022-11-20T12:17:17;9.80;87.50
24326;DHT22;12448;45.532;5.290;2022-11-20T12:22:55;9.80;86.70
24326;DHT22;12448;45.532;5.290;2022-11-20T12:25:28;9.80;86.60
24326;DHT22;12448;45.532;5.290;2022-11-20T12:39:26;10.00;86.20
24326;DHT22;12448;45.532;5.290;2022-11-20T12:42:00;10.10;85.90
24326;DHT22;12448;45.532;5.290;2022-11-20T12:45:14;10.10;84.00
24326;DHT22;12448;45.532;5.290;2022-11-20T12:51:24;10.20;83.80
24326;DHT22;12448;45.532;5.290;2022-11-20T12:57:05;10.30;82.00
24326;DHT22;12448;45.532;5.290;2022-11-20T13:08:35;10.60;81.50
24326;DHT22;12448;45.532;5.290;2022-11-20T13:20:56;10.30;80.40
24326;DHT22;12448;45.532;5.290;2022-11-20T13:24:07;9.90;80.60
24326;DHT22;12448;45.532;5.290;2022-11-20T13:27:00;10.00;80.90
24326;DHT22;12448;45.532;5.290;2022-11-20T13:29:42;10.00;81.30
24326;DHT22;12448;45.532;5.290;2022-11-20T13:32:21;10.50;81.90
24326;DHT22;12448;45.532;5.290;2022-11-20T13:35:00;10.10;82.00
24326;DHT22;12448;45.532;5.290;2022-11-20T13:48:01;10.20;82.00
24326;DHT22;12448;45.532;5.290;2022-11-20T14:04:27;10.20;80.70
24326;DHT22;12448;45.532;5.290;2022-11-20T14:07:41;10.20;81.20
24326;DHT22;12448;45.532;5.290;2022-11-20T14:10:47;10.20;80.80
24326;DHT22;12448;45.532;5.290;2022-11-20T14:13:18;10.20;80.60
24326;DHT22;12448;45.532;5.290;2022-11-20T14:19:28;10.20;80.70
24326;DHT22;12448;45.532;5.290;2022-11-20T14:22:33;10.20;80.90
24326;DHT22;12448;45.532;5.290;2022-11-20T14:25:27;10.20;81.10
24326;DHT22;12448;45.532;5.290;2022-11-20T14:28:50;10.20;81.20
24326;DHT22;12448;45.532;5.290;2022-11-20T14:31:30;10.20;81.10
24326;DHT22;12448;45.532;5.290;2022-11-20T14:41:04;10.20;80.50
24326;DHT22;12448;45.532;5.290;2022-11-20T14:43:59;10.10;80.80
24326;DHT22;12448;45.532;5.290;2022-11-20T14:50:14;10.10;80.60
24326;DHT22;12448;45.532;5.290;2022-11-20T14:56:03;10.10;81.00
24326;DHT22;12448;45.532;5.290;2022-11-20T15:02:20;10.00;81.20
24326;DHT22;12448;45.532;5.290;2022-11-20T15:08:09;9.50;81.40
24326;DHT22;12448;45.532;5.290;2022-11-20T15:11:27;9.90;82.00
24326;DHT22;12448;45.532;5.290;2022-11-20T15:14:43;9.80;82.40
24326;DHT22;12448;45.532;5.290;2022-11-20T15:20:44;9.80;83.30
24326;DHT22;12448;45.532;5.290;2022-11-20T15:23:51;9.70;83.40
24326;DHT22;12448;45.532;5.290;2022-11-20T15:26:55;9.70;83.30
24326;DHT22;12448;45.532;5.290;2022-11-20T15:29:47;10.10;83.50
24326;DHT22;12448;45.532;5.290;2022-11-20T15:32:13;9.70;83.50
24326;DHT22;12448;45.532;5.290;2022-11-20T15:35:20;9.70;83.60
24326;DHT22;12448;45.532;5.290;2022-11-20T15:41:37;9.60;84.10
24326;DHT22;12448;45.532;5.290;2022-11-20T15:44:24;9.60;84.40
24326;DHT22;12448;45.532;5.290;2022-11-20T15:54:23;9.60;84.10
24326;DHT22;12448;45.532;5.290;2022-11-20T15:57:55;9.60;83.80
24326;DHT22;12448;45.532;5.290;2022-11-20T16:00:19;9.60;84.00
24326;DHT22;12448;45.532;5.290;2022-11-20T16:02:48;9.60;83.90
24326;DHT22;12448;45.532;5.290;2022-11-20T16:05:15;9.60;83.80
24326;DHT22;12448;45.532;5.290;2022-11-20T16:07:40;9.60;83.70
24326;DHT22;12448;45.532;5.290;2022-11-20T16:10:06;9.80;83.80
24326;DHT22;12448;45.532;5.290;2022-11-20T16:12:32;9.60;83.40
24326;DHT22;12448;45.532;5.290;2022-11-20T16:15:16;9.50;83.30
24326;DHT22;12448;45.532;5.290;2022-11-20T16:18:04;9.60;83.20
24326;DHT22;12448;45.532;5.290;2022-11-20T16:20:30;9.60;83.20
24326;DHT22;12448;45.532;5.290;2022-11-20T16:22:55;9.50;83.30
24326;DHT22;12448;45.532;5.290;2022-11-20T16:25:21;9.70;83.10
24326;DHT22;12448;45.532;5.290;2022-11-20T16:27:47;9.90;83.30
24326;DHT22;12448;45.532;5.290;2022-11-20T16:30:12;9.60;83.20
24326;DHT22;12448;45.532;5.290;2022-11-20T16:32:38;9.60;83.30
24326;DHT22;12448;45.532;5.290;2022-11-20T16:35:04;9.60;83.50
24326;DHT22;12448;45.532;5.290;2022-11-20T16:37:30;9.60;83.70
24326;DHT22;12448;45.532;5.290;2022-11-20T16:40:37;9.60;83.90
24326;DHT22;12448;45.532;5.290;2022-11-20T16:50:07;9.50;83.50
24326;DHT22;12448;45.532;5.290;2022-11-20T16:53:05;9.50;83.70
24326;DHT22;12448;45.532;5.290;2022-11-20T16:55:37;9.40;83.80
24326;DHT22;12448;45.532;5.290;2022-11-20T16:58:17;9.90;85.40
24326;DHT22;12448;45.532;5.290;2022-11-20T17:00:43;9.30;82.40
24326;DHT22;12448;45.532;5.290;2022-11-20T17:03:09;9.30;82.90
24326;DHT22;12448;45.532;5.290;2022-11-20T17:05:35;9.30;84.00
24326;DHT22;12448;45.532;5.290;2022-11-20T17:08:01;9.30;83.50
24326;DHT22;12448;45.532;5.290;2022-11-20T17:10:26;9.30;84.40
24326;DHT22;12448;45.532;5.290;2022-11-20T17:12:52;9.30;83.60
24326;DHT22;12448;45.532;5.290;2022-11-20T17:15:18;9.40;83.60
24326;DHT22;12448;45.532;5.290;2022-11-20T17:17:44;9.30;83.70
24326;DHT22;12448;45.532;5.290;2022-11-20T17:20:10;9.40;83.90
24326;DHT22;12448;45.532;5.290;2022-11-20T17:22:47;9.30;83.70
24326;DHT22;12448;45.532;5.290;2022-11-20T17:25:16;9.30;84.00
24326;DHT22;12448;45.532;5.290;2022-11-20T17:27:41;9.20;84.00
24326;DHT22;12448;45.532;5.290;2022-11-20T17:30:07;9.30;84.30
24326;DHT22;12448;45.532;5.290;2022-11-20T17:32:33;9.30;84.40
24326;DHT22;12448;45.532;5.290;2022-11-20T17:34:59;8.90;84.30
24326;DHT22;12448;45.532;5.290;2022-11-20T17:37:24;9.30;84.50
24326;DHT22;12448;45.532;5.290;2022-11-20T17:39:50;9.40;84.40
24326;DHT22;12448;45.532;5.290;2022-11-20T17:42:16;9.30;84.10
24326;DHT22;12448;45.532;5.290;2022-11-20T17:45:01;9.30;84.00
24326;DHT22;12448;45.532;5.290;2022-11-20T17:47:27;9.30;83.80
24326;DHT22;12448;45.532;5.290;2022-11-20T17:49:53;9.30;83.70
24326;DHT22;12448;45.532;5.290;2022-11-20T17:52:19;9.30;83.60
24326;DHT22;12448;45.532;5.290;2022-11-20T17:54:45;9.30;83.70
24326;DHT22;12448;45.532;5.290;2022-11-20T17:57:11;9.20;83.80
24326;DHT22;12448;45.532;5.290;2022-11-20T17:59:55;9.30;83.90
24326;DHT22;12448;45.532;5.290;2022-11-20T18:02:30;9.30;83.90
24326;DHT22;12448;45.532;5.290;2022-11-20T18:05:01;9.10;83.70
24326;DHT22;12448;45.532;5.290;2022-11-20T18:07:33;9.20;83.90
24326;DHT22;12448;45.532;5.290;2022-11-20T18:09:58;9.20;83.90
24326;DHT22;12448;45.532;5.290;2022-11-20T18:12:24;9.60;84.10
24326;DHT22;12448;45.532;5.290;2022-11-20T18:14:50;9.70;84.20
24326;DHT22;12448;45.532;5.290;2022-11-20T18:17:15;9.20;83.80
24326;DHT22;12448;45.532;5.290;2022-11-20T18:19:44;9.20;83.80
24326;DHT22;12448;45.532;5.290;2022-11-20T18:22:11;9.10;83.60
24326;DHT22;12448;45.532;5.290;2022-11-20T18:24:38;9.10;83.60
24326;DHT22;12448;45.532;5.290;2022-11-20T18:27:05;9.10;83.40
24326;DHT22;12448;45.532;5.290;2022-11-20T18:29:32;9.10;83.30
24326;DHT22;12448;45.532;5.290;2022-11-20T18:31:58;9.10;83.00
24326;DHT22;12448;45.532;5.290;2022-11-20T18:34:24;9.30;83.30
24326;DHT22;12448;45.532;5.290;2022-11-20T18:36:50;9.10;83.10
24326;DHT22;12448;45.532;5.290;2022-11-20T18:39:16;9.00;82.90
24326;DHT22;12448;45.532;5.290;2022-11-20T18:41:42;9.00;82.80
24326;DHT22;12448;45.532;5.290;2022-11-20T18:44:28;9.00;83.00
24326;DHT22;12448;45.532;5.290;2022-11-20T18:49:47;9.00;83.40
24326;DHT22;12448;45.532;5.290;2022-11-20T18:52:17;9.00;83.30
24326;DHT22;12448;45.532;5.290;2022-11-20T18:54:43;9.00;83.50
24326;DHT22;12448;45.532;5.290;2022-11-20T18:57:09;9.50;83.80
24326;DHT22;12448;45.532;5.290;2022-11-20T18:59:39;9.20;83.70